createdAt,value
2018-04-13T00:00:08.818Z,27.27
2018-04-13T00:02:35.037Z,30.10
2018-04-13T00:05:01.278Z,28.80
2018-04-13T00:07:27.779Z,28.47
2018-04-13T00:09:54.016Z,29.87
2018-04-13T00:12:20.238Z,28.03
2018-04-13T00:14:46.481Z,28.57
2018-04-13T00:17:12.700Z,27.57
2018-04-13T00:19:38.930Z,26.93
2018-04-13T00:22:05.158Z,29.73
2018-04-13T00:24:31.427Z,27.47
2018-04-13T00:26:57.645Z,28.73
2018-04-13T00:29:24.081Z,28.47
2018-04-13T00:31:50.325Z,31.40
2018-04-13T00:34:16.610Z,28.70
2018-04-13T00:36:43.592Z,28.00
2018-04-13T00:39:10.236Z,29.93
2018-04-13T00:41:36.475Z,31.57
2018-04-13T00:44:02.709Z,31.13
2018-04-13T00:46:28.936Z,31.17
2018-04-13T00:48:55.919Z,28.57
2018-04-13T00:51:22.129Z,28.70
2018-04-13T00:53:49.098Z,28.80
2018-04-13T00:56:15.360Z,31.27
2018-04-13T00:58:41.578Z,33.97
2018-04-13T01:01:07.789Z,34.63
2018-04-13T01:03:34.049Z,33.00
2018-04-13T01:06:00.278Z,32.77
2018-04-13T01:08:26.508Z,33.17
2018-04-13T01:10:52.741Z,32.77
2018-04-13T01:13:18.953Z,33.00
2018-04-13T01:15:45.195Z,36.07
2018-04-13T01:18:11.424Z,31.50
2018-04-13T01:20:37.652Z,35.37
2018-04-13T01:23:03.881Z,33.60
2018-04-13T01:25:30.543Z,36.80
2018-04-13T01:27:56.790Z,33.67
2018-04-13T01:30:23.748Z,35.63
2018-04-13T01:32:49.976Z,34.63
2018-04-13T01:35:16.217Z,36.40
2018-04-13T01:37:42.424Z,35.50
2018-04-13T01:40:09.744Z,35.10
2018-04-13T01:42:36.700Z,34.50
2018-04-13T01:45:03.658Z,36.97
2018-04-13T01:47:31.066Z,38.63
2018-04-13T01:49:57.284Z,36.10
2018-04-13T01:52:23.508Z,38.13
2018-04-13T01:54:49.757Z,37.20
2018-04-13T01:57:15.968Z,36.07
2018-04-13T01:59:42.190Z,34.20
2018-04-13T02:02:08.460Z,38.10
2018-04-13T02:04:34.737Z,38.13
2018-04-13T02:07:01.684Z,39.17
2018-04-13T02:09:27.895Z,36.13
2018-04-13T02:11:54.850Z,38.73
2018-04-13T02:14:21.833Z,37.77
2018-04-13T02:16:48.119Z,33.80
2018-04-13T02:19:15.063Z,38.00
2018-04-13T02:21:42.024Z,36.13
2018-04-13T02:24:08.989Z,37.80
2018-04-13T02:26:35.940Z,35.67
2018-04-13T02:29:02.401Z,39.17
2018-04-13T02:31:28.646Z,36.10
2018-04-13T02:33:54.867Z,38.57
2018-04-13T02:36:21.161Z,39.90
2018-04-13T02:38:47.366Z,40.77
2018-04-13T02:41:14.306Z,41.10
2018-04-13T02:43:41.278Z,36.53
2018-04-13T02:46:07.492Z,35.70
2018-04-13T02:48:33.785Z,38.50
2018-04-13T02:51:00.021Z,38.67
2018-04-13T02:53:26.234Z,36.17
2018-04-13T02:55:52.448Z,39.10
2018-04-13T02:58:18.680Z,37.77
2018-04-13T03:00:44.896Z,35.23
2018-04-13T03:03:11.125Z,35.80
2018-04-13T03:05:37.385Z,35.13
2018-04-13T03:08:03.639Z,35.60
2018-04-13T03:10:29.920Z,34.87
2018-04-13T03:12:56.156Z,35.43
2018-04-13T03:15:22.432Z,36.60
2018-04-13T03:17:49.414Z,36.00
2018-04-13T03:20:15.634Z,36.73
2018-04-13T03:22:41.971Z,34.27
2018-04-13T03:25:08.200Z,35.00
2018-04-13T03:27:34.466Z,35.10
2018-04-13T03:30:00.688Z,36.00
2018-04-13T03:32:26.932Z,36.30
2018-04-13T03:34:53.185Z,36.70
2018-04-13T03:37:19.397Z,35.60
2018-04-13T03:39:45.619Z,36.23
2018-04-13T03:42:11.891Z,36.37
2018-04-13T03:44:38.153Z,36.87
2018-04-13T03:47:04.780Z,37.20
2018-04-13T03:49:30.971Z,36.23
2018-04-13T03:51:57.919Z,35.77
2018-04-13T03:54:24.916Z,38.10
2018-04-13T03:56:51.126Z,38.73
2018-04-13T03:59:17.388Z,39.10
2018-04-13T04:01:43.633Z,38.43
2018-04-13T04:04:09.860Z,37.63
2018-04-13T04:06:36.104Z,37.60
2018-04-13T04:09:03.164Z,35.43
2018-04-13T04:11:30.138Z,37.13
2018-04-13T04:13:56.373Z,34.83
2018-04-13T04:16:22.674Z,38.47
2018-04-13T04:18:48.904Z,40.90
2018-04-13T04:21:27.322Z,39.83
2018-04-13T04:24:05.830Z,38.83
2018-04-13T04:26:46.229Z,37.33
2018-04-13T04:29:12.485Z,37.67
2018-04-13T04:31:38.877Z,40.37
2018-04-13T04:34:05.089Z,41.07
2018-04-13T04:36:31.315Z,39.67
2018-04-13T04:38:58.280Z,41.30
2018-04-13T04:41:24.479Z,42.47
2018-04-13T04:43:54.853Z,41.47
2018-04-13T04:46:25.129Z,40.57
2018-04-13T04:48:52.258Z,43.40
2018-04-13T04:51:18.688Z,41.33
2018-04-13T04:53:44.911Z,41.80
2018-04-13T04:56:11.108Z,40.30
2018-04-13T04:58:37.597Z,41.63
2018-04-13T05:01:03.823Z,41.57
2018-04-13T05:03:30.048Z,40.87
2018-04-13T05:05:56.359Z,45.33
2018-04-13T05:08:22.619Z,42.23
2018-04-13T05:10:49.567Z,43.63
2018-04-13T05:13:16.536Z,40.40
2018-04-13T05:15:42.862Z,41.30
2018-04-13T05:18:09.089Z,41.60
2018-04-13T05:20:35.322Z,41.70
2018-04-13T05:23:01.686Z,42.37
2018-04-13T05:25:27.904Z,41.23
2018-04-13T05:27:54.396Z,39.50
2018-04-13T05:30:21.405Z,41.80
2018-04-13T05:32:47.623Z,41.43
2018-04-13T05:35:13.936Z,40.20
2018-04-13T05:37:40.938Z,43.37
2018-04-13T05:40:07.208Z,41.90
2018-04-13T05:42:33.506Z,41.50
2018-04-13T05:44:59.710Z,43.77
2018-04-13T05:47:25.971Z,42.50
2018-04-13T05:49:52.295Z,43.17
2018-04-13T05:52:18.504Z,44.87
2018-04-13T05:54:44.755Z,44.30
2018-04-13T05:57:11.875Z,42.97
2018-04-13T05:59:38.346Z,42.27
2018-04-13T06:02:05.514Z,44.73
2018-04-13T06:04:31.721Z,45.27
2018-04-13T06:06:58.785Z,43.33
2018-04-13T06:09:25.760Z,45.40
2018-04-13T06:11:52.100Z,45.37
2018-04-13T06:14:18.320Z,45.40
2018-04-13T06:16:44.755Z,44.83
2018-04-13T06:19:10.963Z,40.37
2018-04-13T06:21:37.240Z,45.97
2018-04-13T06:24:03.491Z,42.80
2018-04-13T06:26:29.780Z,41.80
2018-04-13T06:28:55.978Z,45.57
2018-04-13T06:31:22.241Z,45.83
2018-04-13T06:33:48.469Z,44.37
2018-04-13T06:36:14.712Z,45.27
2018-04-13T06:38:41.004Z,45.13
2018-04-13T06:41:07.239Z,41.87
2018-04-13T06:43:33.489Z,41.03
2018-04-13T06:45:59.710Z,47.87
2018-04-13T06:48:26.063Z,43.50
2018-04-13T06:50:52.574Z,44.43
2018-04-13T06:53:18.795Z,45.70
2018-04-13T06:55:45.007Z,42.30
2018-04-13T06:58:11.978Z,46.40
2018-04-13T07:00:38.214Z,43.57
2018-04-13T07:03:04.684Z,44.53
2018-04-13T07:05:31.644Z,47.43
2018-04-13T07:07:57.914Z,47.17
2018-04-13T07:10:24.188Z,49.37
2018-04-13T07:12:50.451Z,47.73
2018-04-13T07:15:17.407Z,48.37
2018-04-13T07:17:43.921Z,53.07
2018-04-13T07:20:10.875Z,50.00
2018-04-13T07:22:37.111Z,48.97
2018-04-13T07:25:03.576Z,49.83
2018-04-13T07:27:29.843Z,47.23
2018-04-13T07:29:57.573Z,49.17
2018-04-13T07:32:24.806Z,48.50
2018-04-13T07:34:50.584Z,48.37
2018-04-13T07:37:16.801Z,46.73
2018-04-13T07:39:43.012Z,45.50
2018-04-13T07:42:09.220Z,45.13
2018-04-13T07:44:35.519Z,43.03
2018-04-13T07:47:02.485Z,43.17
2018-04-13T07:49:28.730Z,45.73
2018-04-13T07:51:54.931Z,44.57
2018-04-13T07:54:21.896Z,41.10
2018-04-13T07:56:48.153Z,45.53
2018-04-13T07:59:14.388Z,43.27
2018-04-13T08:01:40.741Z,43.47
2018-04-13T08:04:06.916Z,43.37
2018-04-13T08:06:33.148Z,45.47
2018-04-13T08:08:59.360Z,45.37
2018-04-13T08:11:26.117Z,43.20
2018-04-13T08:13:52.371Z,43.53
2018-04-13T08:16:18.661Z,45.17
2018-04-13T08:18:44.907Z,47.30
2018-04-13T08:21:11.187Z,48.57
2018-04-13T08:23:38.221Z,48.97
2018-04-13T08:26:04.473Z,48.80
2018-04-13T08:28:31.945Z,49.00
2018-04-13T08:30:58.421Z,48.97
2018-04-13T08:33:25.130Z,53.20
2018-04-13T08:35:51.952Z,47.90
2018-04-13T08:38:18.923Z,48.90
2018-04-13T08:40:45.141Z,48.77
2018-04-13T08:43:12.201Z,50.50
2018-04-13T08:45:39.260Z,50.00
2018-04-13T08:48:05.660Z,50.93
2018-04-13T08:50:32.734Z,46.80
2018-04-13T08:52:59.079Z,48.37
2018-04-13T08:55:25.617Z,48.00
2018-04-13T08:57:51.869Z,49.43
2018-04-13T09:00:18.083Z,49.40
2018-04-13T09:02:44.500Z,47.20
2018-04-13T09:05:10.705Z,50.13
2018-04-13T09:07:37.677Z,45.70
2018-04-13T09:10:04.396Z,37.17
2018-04-13T09:12:31.348Z,43.03
2018-04-13T09:14:57.609Z,48.53
2018-04-13T09:17:23.876Z,48.20
2018-04-13T09:19:50.212Z,45.70
2018-04-13T09:22:16.480Z,46.50
2018-04-13T09:24:42.712Z,51.33
2018-04-13T09:27:08.932Z,48.20
2018-04-13T09:29:35.293Z,44.80
2018-04-13T09:32:02.341Z,46.50
2018-04-13T09:34:28.861Z,43.80
2018-04-13T09:36:55.168Z,44.07
2018-04-13T09:39:21.391Z,43.23
2018-04-13T09:41:48.405Z,43.57
2018-04-13T09:44:14.627Z,45.40
2018-04-13T09:46:40.903Z,45.20
2018-04-13T09:49:07.320Z,45.20
2018-04-13T09:51:34.280Z,46.67
2018-04-13T09:54:01.230Z,45.80
2018-04-13T09:56:27.481Z,44.33
2018-04-13T09:58:53.916Z,42.47
2018-04-13T10:01:20.164Z,44.60
2018-04-13T10:03:49.287Z,44.97
2018-04-13T10:06:15.899Z,43.20
2018-04-13T10:08:42.113Z,45.40
2018-04-13T10:11:08.375Z,47.20
2018-04-13T10:13:34.770Z,43.87
2018-04-13T10:16:01.024Z,48.17
2018-04-13T10:18:27.328Z,48.13
2018-04-13T10:20:53.824Z,46.70
2018-04-13T10:23:21.314Z,48.40
2018-04-13T10:25:47.554Z,45.90
2018-04-13T10:28:13.850Z,48.60
2018-04-13T10:30:40.848Z,46.17
2018-04-13T10:33:07.077Z,48.30
2018-04-13T10:38:25.236Z,48.07
2018-04-13T10:40:51.585Z,45.93
2018-04-13T10:43:17.846Z,48.63
2018-04-13T10:45:44.869Z,48.50
2018-04-13T10:48:11.096Z,46.30
2018-04-13T10:50:37.377Z,45.00
2018-04-13T10:53:03.602Z,44.40
2018-04-13T10:55:29.945Z,48.27
2018-04-13T10:57:56.185Z,47.40
2018-04-13T11:00:22.400Z,45.63
2018-04-13T11:02:48.607Z,46.17
2018-04-13T11:05:22.521Z,48.30
2018-04-13T11:07:49.675Z,47.47
2018-04-13T11:10:16.202Z,44.50
2018-04-13T11:12:42.422Z,46.90
2018-04-13T11:15:09.952Z,43.97
2018-04-13T11:17:36.151Z,44.73
2018-04-13T11:20:02.475Z,45.67
2018-04-13T11:22:28.726Z,46.97
2018-04-13T11:24:55.006Z,44.40
2018-04-13T11:27:22.906Z,47.13
2018-04-13T11:29:49.272Z,46.30
2018-04-13T11:32:16.296Z,46.87
2018-04-13T11:34:42.538Z,45.10
2018-04-13T11:37:08.860Z,42.73
2018-04-13T11:39:35.125Z,46.17
2018-04-13T11:42:01.334Z,44.13
2018-04-13T11:44:28.615Z,47.90
2018-04-13T11:46:56.779Z,48.00
2018-04-13T11:49:23.024Z,46.97
2018-04-13T11:51:50.222Z,45.77
2018-04-13T11:54:16.468Z,44.00
2018-04-13T11:56:42.713Z,47.23
2018-04-13T11:59:09.746Z,44.70
2018-04-13T12:01:36.028Z,45.27
2018-04-13T12:04:02.264Z,48.03
2018-04-13T12:06:28.671Z,46.70
2018-04-13T12:08:55.637Z,46.50
2018-04-13T12:11:21.961Z,48.57
2018-04-13T12:13:49.042Z,46.13
2018-04-13T12:16:15.301Z,46.37
2018-04-13T12:18:42.221Z,45.40
2018-04-13T12:21:08.444Z,46.17
2018-04-13T12:23:34.689Z,50.80
2018-04-13T12:26:01.160Z,48.37
2018-04-13T12:28:28.346Z,46.40
2018-04-13T12:30:54.718Z,49.00
2018-04-13T12:33:20.985Z,49.37
2018-04-13T12:36:17.840Z,51.00
2018-04-13T12:38:47.105Z,47.70
2018-04-13T12:41:13.577Z,52.30
2018-04-13T12:43:40.587Z,50.87
2018-04-13T12:46:07.228Z,52.50
2018-04-13T12:48:33.560Z,50.80
2018-04-13T12:51:01.514Z,54.17
2018-04-13T12:53:28.133Z,53.17
2018-04-13T12:55:54.444Z,50.20
2018-04-13T12:58:20.703Z,52.07
2018-04-13T13:00:46.947Z,55.53
2018-04-13T13:03:13.152Z,53.63
2018-04-13T13:05:39.402Z,58.77
2018-04-13T13:08:05.631Z,55.27
2018-04-13T13:10:31.922Z,53.20
2018-04-13T13:12:58.123Z,51.10
2018-04-13T13:15:25.105Z,51.60
2018-04-13T13:17:51.344Z,51.93
2018-04-13T13:20:17.617Z,52.93
2018-04-13T13:22:43.913Z,52.87
2018-04-13T13:25:10.155Z,51.73
2018-04-13T13:27:36.507Z,50.70
2018-04-13T13:30:02.814Z,50.33
2018-04-13T13:32:29.124Z,51.33
2018-04-13T13:34:55.618Z,46.63
2018-04-13T13:37:22.824Z,51.50
2018-04-13T13:39:49.041Z,47.77
2018-04-13T13:42:15.299Z,49.23
2018-04-13T13:44:45.745Z,49.00
2018-04-13T13:47:12.276Z,49.40
2018-04-13T13:49:38.546Z,50.80
2018-04-13T13:52:04.743Z,51.60
2018-04-13T13:54:30.999Z,51.47
2018-04-13T13:56:57.952Z,51.70
2018-04-13T13:59:24.321Z,51.47
2018-04-13T14:01:50.733Z,57.67
2018-04-13T14:04:17.129Z,56.67
2018-04-13T14:06:44.121Z,52.60
2018-04-13T14:09:10.364Z,55.07
2018-04-13T14:11:36.583Z,57.30
2018-04-13T14:14:03.048Z,57.73
2018-04-13T14:16:29.456Z,54.60
2018-04-13T14:18:55.788Z,59.40
2018-04-13T14:21:22.817Z,59.30
2018-04-13T14:23:49.052Z,55.47
2018-04-13T14:26:15.308Z,56.77
2018-04-13T14:28:41.525Z,57.37
2018-04-13T14:31:07.834Z,57.77
2018-04-13T14:33:34.085Z,57.57
2018-04-13T14:36:00.402Z,54.80
2018-04-13T14:38:26.664Z,51.87
2018-04-13T14:40:53.063Z,54.37
2018-04-13T14:43:19.368Z,53.43
2018-04-13T14:45:45.714Z,53.00
2018-04-13T14:48:11.947Z,54.50
2018-04-13T14:50:38.172Z,51.50
2018-04-13T14:53:04.782Z,52.20
2018-04-13T14:55:31.789Z,53.83
2018-04-13T14:57:58.020Z,53.17
2018-04-13T15:00:24.349Z,53.33
2018-04-13T15:02:50.623Z,50.00
2018-04-13T15:05:17.697Z,51.23
2018-04-13T15:07:44.057Z,49.33
2018-04-13T15:10:10.362Z,51.00
2018-04-13T15:12:36.672Z,50.70
2018-04-13T15:15:03.798Z,50.77
2018-04-13T15:17:30.822Z,49.57
2018-04-13T15:19:57.121Z,51.83
2018-04-13T15:22:23.396Z,50.80
2018-04-13T15:24:49.744Z,50.23
2018-04-13T15:27:15.975Z,51.90
2018-04-13T15:29:42.210Z,52.40
2018-04-13T15:32:09.213Z,52.60
2018-04-13T15:34:35.479Z,52.40
2018-04-13T15:37:01.732Z,54.20
2018-04-13T15:39:28.765Z,52.03
2018-04-13T15:41:55.833Z,51.60
2018-04-13T15:44:22.481Z,56.90
2018-04-13T15:46:48.728Z,54.30
2018-04-13T15:49:15.028Z,54.50
2018-04-13T15:51:41.353Z,50.97
2018-04-13T15:54:08.382Z,57.17
2018-04-13T15:56:34.640Z,50.77
2018-04-13T15:59:01.032Z,53.07
2018-04-13T16:01:27.425Z,54.07
2018-04-13T16:03:53.720Z,53.27
2018-04-13T16:06:20.705Z,57.33
2018-04-13T16:08:46.982Z,54.17
2018-04-13T16:11:14.379Z,56.10
2018-04-13T16:13:40.680Z,54.37
2018-04-13T16:16:07.702Z,53.03
2018-04-13T16:18:34.035Z,52.60
2018-04-13T16:21:00.337Z,52.80
2018-04-13T16:23:26.592Z,51.23
2018-04-13T16:25:53.639Z,52.10
2018-04-13T16:28:19.865Z,53.73
2018-04-13T16:30:46.089Z,57.90
2018-04-13T16:33:12.860Z,54.37
2018-04-13T16:35:39.892Z,56.50
2018-04-13T16:38:06.147Z,54.90
2018-04-13T16:40:33.152Z,51.00
2018-04-13T16:42:59.385Z,53.17
2018-04-13T16:45:25.979Z,48.63
2018-04-13T16:47:52.252Z,49.30
2018-04-13T16:50:18.890Z,47.83
2018-04-13T16:52:45.155Z,48.13
2018-04-13T16:55:12.203Z,48.80
2018-04-13T16:57:39.276Z,49.90
2018-04-13T17:00:05.581Z,49.03
2018-04-13T17:02:32.559Z,52.93
2018-04-13T17:04:58.821Z,54.10
2018-04-13T17:07:25.133Z,56.70
2018-04-13T17:09:51.402Z,57.67
2018-04-13T17:12:17.668Z,56.53
2018-04-13T17:14:44.036Z,59.80
2018-04-13T17:17:10.282Z,59.77
2018-04-13T17:19:36.661Z,57.90
2018-04-13T17:22:02.969Z,55.90
2018-04-13T17:24:30.059Z,58.50
2018-04-13T17:26:56.389Z,61.27
2018-04-13T17:29:22.669Z,68.37
2018-04-13T17:31:49.191Z,61.07
2018-04-13T17:34:15.510Z,61.00
2018-04-13T17:36:41.847Z,59.53
2018-04-13T17:39:08.505Z,59.47
2018-04-13T17:41:34.752Z,60.20
2018-04-13T17:44:01.816Z,61.57
2018-04-13T17:46:28.095Z,55.37
2018-04-13T17:48:54.374Z,61.77
2018-04-13T17:51:20.656Z,62.80
2018-04-13T17:53:46.973Z,60.27
2018-04-13T17:56:15.717Z,62.37
2018-04-13T17:58:42.724Z,58.63
2018-04-13T18:01:09.124Z,55.40
2018-04-13T18:03:35.421Z,56.47
2018-04-13T18:06:02.413Z,56.30
2018-04-13T18:08:28.852Z,60.00
2018-04-13T18:10:55.273Z,63.20
2018-04-13T18:13:21.581Z,56.40
2018-04-13T18:15:48.553Z,56.87
2018-04-13T18:18:14.807Z,56.07
2018-04-13T18:20:41.147Z,54.57
2018-04-13T18:23:07.406Z,56.70
2018-04-13T18:25:34.460Z,54.70
2018-04-13T18:28:01.581Z,55.70
2018-04-13T18:30:28.704Z,55.70
2018-04-13T18:32:54.968Z,56.87
2018-04-13T18:35:21.965Z,57.10
2018-04-13T18:37:48.240Z,62.27
2018-04-13T18:40:14.548Z,62.50
2018-04-13T18:42:41.492Z,61.87
2018-04-13T18:45:07.811Z,59.93
2018-04-13T18:47:34.538Z,62.30
2018-04-13T18:50:00.931Z,66.00
2018-04-13T18:52:27.305Z,62.77
2018-04-13T18:54:54.362Z,61.17
2018-04-13T18:57:20.615Z,63.87
2018-04-13T18:59:46.970Z,55.87
2018-04-13T19:02:13.361Z,58.50
2018-04-13T19:04:39.603Z,57.87
2018-04-13T19:07:06.029Z,57.70
2018-04-13T19:09:32.289Z,57.00
2018-04-13T19:11:58.531Z,52.90
2018-04-13T19:14:24.803Z,55.10
2018-04-13T19:16:52.033Z,54.57
2018-04-13T19:19:19.201Z,59.77
2018-04-13T19:21:47.744Z,55.07
2018-04-13T19:24:15.448Z,56.20
2018-04-13T19:26:42.552Z,52.67
2018-04-13T19:29:09.517Z,52.83
2018-04-13T19:31:40.021Z,51.80
2018-04-13T19:34:25.466Z,53.67
2018-04-13T19:36:55.098Z,49.93
2018-04-13T19:39:21.406Z,52.67
2018-04-13T19:41:48.184Z,55.40
2018-04-13T19:44:28.667Z,56.30
2018-04-13T19:46:55.012Z,52.80
2018-04-13T19:49:21.977Z,52.00
2018-04-13T19:51:48.203Z,49.47
2018-04-13T19:54:17.844Z,48.83
2018-04-13T19:56:44.083Z,47.07
2018-04-13T19:59:10.354Z,49.33
2018-04-13T20:01:37.472Z,45.23
2018-04-13T20:04:03.881Z,42.07
2018-04-13T20:06:30.225Z,41.07
2018-04-13T20:08:56.482Z,38.13
2018-04-13T20:11:22.709Z,39.27
2018-04-13T20:13:48.950Z,37.37
2018-04-13T20:16:21.070Z,42.60
2018-04-13T20:18:47.393Z,42.33
2018-04-13T20:21:13.640Z,42.97
2018-04-13T20:23:39.909Z,46.10
2018-04-13T20:26:06.237Z,48.20
2018-04-13T20:28:33.276Z,51.70
2018-04-13T20:30:59.522Z,52.67
2018-04-13T20:33:26.557Z,51.97
2018-04-13T20:35:52.802Z,53.50
2018-04-13T20:38:19.887Z,53.47
2018-04-13T20:40:46.186Z,56.10
2018-04-13T20:43:13.159Z,47.47
2018-04-13T20:45:39.498Z,52.20
2018-04-13T20:48:05.957Z,45.50
2018-04-13T20:50:32.220Z,50.50
2018-04-13T20:52:59.190Z,51.03
2018-04-13T20:55:25.407Z,47.97
2018-04-13T20:57:52.376Z,51.63
2018-04-13T21:00:19.072Z,49.00
2018-04-13T21:02:52.244Z,46.53
2018-04-13T21:05:18.495Z,45.40
2018-04-13T21:07:44.733Z,46.37
2018-04-13T21:10:11.772Z,46.07
2018-04-13T21:12:38.077Z,46.10
2018-04-13T21:15:04.395Z,43.27
2018-04-13T21:17:30.601Z,49.37
2018-04-13T21:19:56.826Z,43.57
2018-04-13T21:22:23.085Z,46.20
2018-04-13T21:24:49.360Z,46.30
2018-04-13T21:27:16.081Z,46.50
2018-04-13T21:29:42.392Z,47.87
2018-04-13T21:32:08.696Z,50.67
2018-04-13T21:34:34.949Z,49.20
2018-04-13T21:37:01.255Z,49.43
2018-04-13T21:39:27.544Z,50.40
2018-04-13T21:41:53.856Z,52.60
2018-04-13T21:44:20.172Z,51.70
2018-04-13T21:46:46.458Z,50.10
2018-04-13T21:49:12.833Z,50.60
2018-04-13T21:51:39.120Z,50.17
2018-04-13T21:54:06.106Z,46.90
2018-04-13T21:56:32.380Z,49.93
2018-04-13T21:58:58.634Z,51.37
2018-04-13T22:01:24.886Z,49.80
2018-04-13T22:03:51.119Z,52.30
2018-04-13T22:06:17.352Z,47.20
2018-04-13T22:08:43.591Z,48.40
2018-04-13T22:11:09.811Z,48.00
2018-04-13T22:13:36.033Z,48.00
2018-04-13T22:16:02.291Z,48.33
2018-04-13T22:18:28.621Z,45.63
2018-04-13T22:20:54.863Z,43.07
2018-04-13T22:23:21.091Z,44.87
2018-04-13T22:25:47.320Z,42.33
2018-04-13T22:28:13.620Z,40.20
2018-04-13T22:30:40.620Z,40.73
2018-04-13T22:33:07.702Z,38.43
2018-04-13T22:35:33.931Z,39.73
2018-04-13T22:38:00.301Z,40.03
2018-04-13T22:40:26.536Z,37.63
2018-04-13T22:42:52.812Z,36.00
2018-04-13T22:45:19.053Z,34.63
2018-04-13T22:47:45.281Z,36.17
2018-04-13T22:50:11.659Z,35.33
2018-04-13T22:52:37.832Z,37.03
2018-04-13T22:55:04.179Z,37.63
2018-04-13T22:57:30.422Z,38.13
2018-04-13T22:59:56.664Z,31.90
2018-04-13T23:02:22.904Z,36.13
2018-04-13T23:04:49.189Z,27.63
2018-04-13T23:07:15.426Z,33.17
2018-04-13T23:09:41.648Z,32.17
2018-04-13T23:12:07.945Z,32.23
2018-04-13T23:14:34.940Z,29.90
2018-04-13T23:17:01.164Z,31.17
2018-04-13T23:19:27.559Z,32.63
2018-04-13T23:21:54.541Z,32.53
2018-04-13T23:24:20.815Z,25.30
2018-04-13T23:26:47.041Z,26.57
2018-04-13T23:29:13.373Z,26.60
2018-04-13T23:31:39.657Z,30.40
2018-04-13T23:34:05.938Z,27.13
2018-04-13T23:36:32.186Z,28.40
2018-04-13T23:38:59.227Z,24.73
2018-04-13T23:41:26.265Z,31.20
2018-04-13T23:43:53.269Z,24.17
2018-04-13T23:46:19.538Z,25.50
2018-04-13T23:48:45.796Z,22.10
2018-04-13T23:51:12.783Z,26.03
2018-04-13T23:53:39.028Z,24.90
2018-04-13T23:56:05.303Z,23.70
2018-04-13T23:58:31.615Z,22.90
